Time;durP1;ratioP1;P1;durP2;ratioP2;P2;SDS_P1;SDS_P2;PMS_P1;PMS_P2;Temp;Humidity;BMP_temperature;BMP_pressure;BME280_temperature;BME280_humidity;BME280_pressure;Samples;Min_cycle;Max_cycle;Signal;HPM_P1;HPM_P2
2023/03/01 00:01:51;;;;;;;11.45;7.63;;;;;;;;;;5128285;27;20288;-47
2023/03/01 00:04:17;;;;;;;10.93;7.30;;;;;;;;;;5128350;27;20039;-48
2023/03/01 00:06:47;;;;;;;13.07;7.60;;;;;;;;;;5127942;27;20042;-46
2023/03/01 00:09:14;;;;;;;11.35;7.82;;;;;;;;;;5128045;27;20065;-48
2023/03/01 00:11:40;;;;;;;11.15;7.57;;;;;;;;;;5127554;27;20027;-47
2023/03/01 00:14:06;;;;;;;11.38;7.28;;;;;;;;;;5109825;27;20118;-47
2023/03/01 00:16:42;;;;;;;11.82;7.18;;;;;;;;;;5107254;28;20110;-51
2023/03/01 00:19:10;;;;;;;10.07;6.82;;;;;;;;;;5106592;28;20506;-49
2023/03/01 00:21:36;;;;;;;10.65;7.05;;;;;;;;;;5107098;28;20441;-48
2023/03/01 00:24:03;;;;;;;8.90;6.18;;;;;;;;;;5106721;28;20457;-48
2023/03/01 00:26:29;;;;;;;9.30;6.65;;;;;;;;;;5106819;28;20097;-49
2023/03/01 00:28:55;;;;;;;10.70;6.60;;;;;;;;;;5106949;28;20028;-47
2023/03/01 00:31:22;;;;;;;9.05;6.60;;;;;;;;;;5107379;28;20023;-47
2023/03/01 00:33:48;;;;;;;10.82;6.97;;;;;;;;;;5107139;28;20024;-49
2023/03/01 00:36:15;;;;;;;9.45;6.43;;;;;;;;;;5106842;28;20523;-48
2023/03/01 00:38:43;;;;;;;9.40;6.15;;;;;;;;;;5106678;28;20055;-49
2023/03/01 00:41:10;;;;;;;10.63;6.60;;;;;;;;;;5106524;28;20070;-49
2023/03/01 00:43:36;;;;;;;9.10;6.38;;;;;;;;;;5106490;28;20439;-51
2023/03/01 00:46:30;;;;;;;10.60;6.72;;;;;;;;;;5106778;28;20028;-49
2023/03/01 00:48:56;;;;;;;11.90;7.32;;;;;;;;;;5103014;28;20059;-47
2023/03/01 00:51:24;;;;;;;10.93;6.90;;;;;;;;;;5107006;28;20442;-47
2023/03/01 00:53:51;;;;;;;10.32;6.53;;;;;;;;;;5106890;28;20447;-51
2023/03/01 00:56:17;;;;;;;10.15;6.82;;;;;;;;;;5106830;28;20296;-48
2023/03/01 00:58:43;;;;;;;10.90;6.88;;;;;;;;;;5106579;28;20040;-49
2023/03/01 01:01:17;;;;;;;12.55;7.53;;;;;;;;;;5105989;28;20035;-48
2023/03/01 01:03:51;;;;;;;9.45;6.75;;;;;;;;;;5105944;28;20048;-47
2023/03/01 06:13:16;;;;;;;10.77;7.35;;;;;;;;;;5103592;28;20054;-49
2023/03/01 06:15:42;;;;;;;14.77;9.00;;;;;;;;;;5108218;28;20023;-46
2023/03/01 06:18:09;;;;;;;16.35;10.02;;;;;;;;;;5108510;28;20770;-47
2023/03/01 06:20:35;;;;;;;17.67;11.10;;;;;;;;;;5107816;28;20053;-47
2023/03/01 06:23:01;;;;;;;18.10;10.90;;;;;;;;;;5128463;28;20019;-49
2023/03/01 06:25:27;;;;;;;17.50;11.00;;;;;;;;;;5128985;28;20044;-49
2023/03/01 06:27:53;;;;;;;17.15;10.57;;;;;;;;;;5128947;27;20023;-48
2023/03/01 06:30:21;;;;;;;18.17;11.25;;;;;;;;;;5128400;27;20019;-48
2023/03/01 06:32:47;;;;;;;16.85;10.82;;;;;;;;;;5129005;28;20135;-46
2023/03/01 06:35:17;;;;;;;15.82;10.07;;;;;;;;;;5128752;27;20033;-49
2023/03/01 06:37:43;;;;;;;14.32;9.35;;;;;;;;;;5128307;28;20107;-46
2023/03/01 06:40:11;;;;;;;17.27;10.82;;;;;;;;;;5128685;28;20034;-48
2023/03/01 06:42:38;;;;;;;19.42;11.35;;;;;;;;;;5128914;28;20023;-46
2023/03/01 06:45:04;;;;;;;17.63;10.90;;;;;;;;;;5129784;27;20053;-48
2023/03/01 06:47:30;;;;;;;17.65;11.45;;;;;;;;;;5131141;27;20027;-48
2023/03/01 06:49:56;;;;;;;18.35;11.52;;;;;;;;;;5140113;27;20031;-51
2023/03/01 06:52:22;;;;;;;15.80;10.82;;;;;;;;;;5128942;27;20105;-47
2023/03/01 06:54:48;;;;;;;16.58;11.57;;;;;;;;;;5127670;27;20375;-52
2023/03/01 06:57:14;;;;;;;16.08;10.85;;;;;;;;;;5133436;27;20494;-47
2023/03/01 06:59:41;;;;;;;15.98;10.93;;;;;;;;;;5132051;27;20031;-48
2023/03/01 07:02:07;;;;;;;17.02;10.45;;;;;;;;;;5128866;27;20083;-47
2023/03/01 07:04:33;;;;;;;13.85;9.82;;;;;;;;;;5141788;27;20027;-47
2023/03/01 07:06:59;;;;;;;15.40;9.95;;;;;;;;;;5135887;27;20084;-46
2023/03/01 07:09:25;;;;;;;14.40;9.18;;;;;;;;;;5132533;27;20436;-46
2023/03/01 07:11:51;;;;;;;13.32;9.20;;;;;;;;;;5132971;27;20110;-48
2023/03/01 07:14:17;;;;;;;14.20;9.50;;;;;;;;;;5131127;27;20070;-50
2023/03/01 07:16:43;;;;;;;12.88;8.70;;;;;;;;;;5133059;27;20028;-46
2023/03/01 07:19:09;;;;;;;12.77;9.07;;;;;;;;;;5131776;27;20023;-48
2023/03/01 07:21:35;;;;;;;12.85;8.82;;;;;;;;;;5132834;27;20027;-47
2023/03/01 07:24:01;;;;;;;12.38;8.43;;;;;;;;;;5132660;27;20023;-48
2023/03/01 07:26:27;;;;;;;13.25;8.88;;;;;;;;;;5131703;27;20482;-47
2023/03/01 07:28:53;;;;;;;12.57;8.10;;;;;;;;;;5131412;27;20080;-48
2023/03/01 07:31:19;;;;;;;11.82;8.15;;;;;;;;;;5131001;27;20428;-46
2023/03/01 07:33:45;;;;;;;11.85;7.95;;;;;;;;;;5130936;27;20066;-49
2023/03/01 07:36:11;;;;;;;11.93;8.60;;;;;;;;;;5131510;27;20092;-46
2023/03/01 07:38:37;;;;;;;13.57;8.50;;;;;;;;;;5131274;27;20098;-47
2023/03/01 07:41:05;;;;;;;12.10;8.35;;;;;;;;;;5129720;27;20031;-46
2023/03/01 07:43:32;;;;;;;13.82;8.55;;;;;;;;;;5132752;27;20022;-47
2023/03/01 07:46:02;;;;;;;11.10;8.00;;;;;;;;;;5130110;27;20031;-45
2023/03/01 07:48:29;;;;;;;12.18;8.50;;;;;;;;;;5131353;27;20060;-47
2023/03/01 07:50:59;;;;;;;12.95;8.82;;;;;;;;;;5129540;27;20035;-49
2023/03/01 07:53:26;;;;;;;10.15;7.70;;;;;;;;;;5129566;27;20200;-51
2023/03/01 07:56:01;;;;;;;12.98;8.30;;;;;;;;;;5129596;27;20281;-50
2023/03/01 07:58:26;;;;;;;11.82;8.38;;;;;;;;;;5129139;27;20038;-46
2023/03/01 08:00:52;;;;;;;11.93;8.13;;;;;;;;;;5129812;27;20027;-46
2023/03/01 08:03:19;;;;;;;11.57;8.05;;;;;;;;;;5128797;27;20023;-50
2023/03/01 08:05:46;;;;;;;12.40;8.57;;;;;;;;;;5130016;27;20035;-47
2023/03/01 08:08:12;;;;;;;13.35;8.90;;;;;;;;;;5129531;27;20098;-48
2023/03/01 08:10:38;;;;;;;13.20;8.05;;;;;;;;;;5129321;27;20122;-49
2023/03/01 08:13:04;;;;;;;13.20;8.95;;;;;;;;;;5126579;27;20031;-48
2023/03/01 08:15:31;;;;;;;16.25;9.52;;;;;;;;;;5114234;27;20047;-45
2023/03/01 08:17:57;;;;;;;15.13;10.05;;;;;;;;;;5095019;28;20047;-47
2023/03/01 08:20:23;;;;;;;15.98;10.38;;;;;;;;;;5087047;28;20024;-46
2023/03/01 08:22:49;;;;;;;17.30;10.90;;;;;;;;;;5106820;28;20972;-48
2023/03/01 08:25:15;;;;;;;17.60;11.75;;;;;;;;;;5107217;28;20106;-46
2023/03/01 08:27:41;;;;;;;16.65;10.23;;;;;;;;;;5106992;28;20030;-47
2023/03/01 08:30:08;;;;;;;17.35;10.88;;;;;;;;;;5107070;28;20023;-48
2023/03/01 08:32:38;;;;;;;18.88;10.93;;;;;;;;;;5106104;28;20035;-46
2023/03/01 08:35:04;;;;;;;18.52;11.20;;;;;;;;;;5106803;28;20496;-47
2023/03/01 08:37:33;;;;;;;18.83;11.45;;;;;;;;;;5105490;28;20529;-47
2023/03/01 08:39:59;;;;;;;17.73;11.38;;;;;;;;;;5105822;28;20035;-50
2023/03/01 08:42:25;;;;;;;16.95;11.30;;;;;;;;;;5107533;28;20054;-47
2023/03/01 08:44:51;;;;;;;17.58;11.48;;;;;;;;;;5106681;28;20055;-48
2023/03/01 08:47:17;;;;;;;16.42;10.95;;;;;;;;;;5106523;28;20539;-49
2023/03/01 08:49:43;;;;;;;16.02;10.35;;;;;;;;;;5106778;28;20024;-48
2023/03/01 08:52:09;;;;;;;18.75;11.95;;;;;;;;;;5106308;28;20032;-50
2023/03/01 08:54:35;;;;;;;20.05;13.23;;;;;;;;;;5106584;28;20110;-50
2023/03/01 08:57:04;;;;;;;16.58;10.95;;;;;;;;;;5106400;28;20110;-48
2023/03/01 08:59:35;;;;;;;19.13;11.65;;;;;;;;;;5106253;28;20031;-48
2023/03/01 09:02:01;;;;;;;18.60;12.57;;;;;;;;;;5105630;28;20030;-48
2023/03/01 09:04:27;;;;;;;19.55;12.98;;;;;;;;;;5106946;28;20024;-49
2023/03/01 09:06:53;;;;;;;18.83;12.38;;;;;;;;;;5106153;28;20607;-50
2023/03/01 09:09:19;;;;;;;17.33;11.60;;;;;;;;;;5105647;28;20028;-48
2023/03/01 09:11:45;;;;;;;17.38;11.38;;;;;;;;;;5106302;28;20012;-49
2023/03/01 09:14:12;;;;;;;16.35;11.32;;;;;;;;;;5105618;28;20044;-48
2023/03/01 09:16:39;;;;;;;15.38;10.50;;;;;;;;;;5106291;28;20517;-49
2023/03/01 09:19:06;;;;;;;14.95;10.45;;;;;;;;;;5106267;28;20488;-47
2023/03/01 09:21:32;;;;;;;16.65;11.65;;;;;;;;;;5106028;28;20022;-47
2023/03/01 09:23:59;;;;;;;19.45;11.60;;;;;;;;;;5106305;28;20028;-47
2023/03/01 09:26:25;;;;;;;17.70;11.20;;;;;;;;;;5106012;28;20046;-48
2023/03/01 09:28:52;;;;;;;19.85;13.77;;;;;;;;;;5103777;27;20027;-47
2023/03/01 09:31:20;;;;;;;18.20;11.90;;;;;;;;;;5105931;28;20024;-47
2023/03/01 09:33:47;;;;;;;18.48;12.38;;;;;;;;;;5104654;28;20031;-48
2023/03/01 09:36:15;;;;;;;17.98;12.27;;;;;;;;;;5105356;28;20081;-46
2023/03/01 09:38:41;;;;;;;18.75;10.95;;;;;;;;;;5103987;28;20487;-46
2023/03/01 09:41:25;;;;;;;15.98;10.20;;;;;;;;;;5107219;28;20035;-47
2023/03/01 09:43:53;;;;;;;15.70;10.48;;;;;;;;;;5106609;28;20108;-48
2023/03/01 09:46:21;;;;;;;14.45;9.70;;;;;;;;;;5105976;28;20020;-49
2023/03/01 09:48:51;;;;;;;14.95;9.90;;;;;;;;;;5105783;28;20042;-48
2023/03/01 09:51:36;;;;;;;14.18;9.77;;;;;;;;;;5105683;28;20493;-46
2023/03/01 09:54:08;;;;;;;15.05;9.98;;;;;;;;;;5105756;28;20720;-47
2023/03/01 09:56:43;;;;;;;15.60;10.55;;;;;;;;;;5106134;28;20512;-47
2023/03/01 09:59:20;;;;;;;17.23;10.60;;;;;;;;;;5105503;28;20563;-47
2023/03/01 10:01:49;;;;;;;16.23;10.52;;;;;;;;;;5105419;28;20031;-50
2023/03/01 10:04:27;;;;;;;13.90;9.77;;;;;;;;;;5105192;28;20016;-46
2023/03/01 10:07:14;;;;;;;18.20;11.43;;;;;;;;;;5105759;28;20042;-47
2023/03/01 10:09:42;;;;;;;17.00;11.48;;;;;;;;;;5101007;28;20560;-48
2023/03/01 10:12:13;;;;;;;17.90;11.93;;;;;;;;;;5085010;28;20042;-48
2023/03/01 10:14:54;;;;;;;16.17;11.38;;;;;;;;;;5092567;28;20027;-47
2023/03/01 10:17:42;;;;;;;16.13;10.80;;;;;;;;;;5105519;28;20031;-47
2023/03/01 10:20:16;;;;;;;18.15;11.95;;;;;;;;;;5107076;28;20142;-48
2023/03/01 10:22:42;;;;;;;;;;;;;;;;;;5110566;28;20031;-48
2023/03/01 10:25:13;;;;;;;16.33;10.95;;;;;;;;;;5109331;28;20391;-49
2023/03/01 10:27:46;;;;;;;15.10;10.73;;;;;;;;;;5109867;28;20043;-46
2023/03/01 10:30:30;;;;;;;15.68;10.18;;;;;;;;;;5109960;28;20041;-49
2023/03/01 10:32:57;;;;;;;15.48;10.73;;;;;;;;;;5109365;28;20073;-47
2023/03/01 10:35:25;;;;;;;13.20;9.18;;;;;;;;;;5109161;28;20024;-47
2023/03/01 10:38:17;;;;;;;14.18;9.30;;;;;;;;;;5109343;28;20502;-48
2023/03/01 10:41:10;;;;;;;13.50;9.57;;;;;;;;;;5086133;28;20462;-47
2023/03/01 10:43:47;;;;;;;15.38;10.18;;;;;;;;;;5104217;28;20032;-47
2023/03/01 10:46:33;;;;;;;13.57;9.70;;;;;;;;;;5109130;28;20031;-48
2023/03/01 10:49:15;;;;;;;13.88;9.32;;;;;;;;;;5109033;28;20106;-46
2023/03/01 10:51:44;;;;;;;14.98;10.15;;;;;;;;;;5109850;28;20028;-47
2023/03/01 10:54:17;;;;;;;16.00;11.07;;;;;;;;;;5090806;28;20540;-49
2023/03/01 10:56:48;;;;;;;16.52;11.50;;;;;;;;;;5108775;28;20526;-49
2023/03/01 10:59:23;;;;;;;14.65;10.40;;;;;;;;;;5108701;28;20432;-50
2023/03/01 11:02:01;;;;;;;14.43;10.63;;;;;;;;;;5108499;28;20019;-48
2023/03/01 11:04:27;;;;;;;15.40;11.02;;;;;;;;;;5108565;28;20569;-49
2023/03/01 11:06:59;;;;;;;17.17;11.88;;;;;;;;;;5108719;28;20034;-48
2023/03/01 11:09:27;;;;;;;19.58;12.60;;;;;;;;;;5108669;28;20023;-47
2023/03/01 11:11:57;;;;;;;17.33;11.05;;;;;;;;;;5108241;28;20444;-46
2023/03/01 11:14:49;;;;;;;17.15;11.85;;;;;;;;;;5104038;28;20527;-50
2023/03/01 11:17:17;;;;;;;16.92;10.95;;;;;;;;;;5083756;28;20415;-48
2023/03/01 11:19:43;;;;;;;19.55;13.15;;;;;;;;;;5088036;28;20051;-48
2023/03/01 11:22:14;;;;;;;19.13;13.30;;;;;;;;;;5088734;28;20020;-46
2023/03/01 11:24:40;;;;;;;17.83;12.13;;;;;;;;;;5088597;28;20025;-50
2023/03/01 11:27:12;;;;;;;15.70;11.50;;;;;;;;;;5087686;28;20027;-45
2023/03/01 11:29:47;;;;;;;16.08;10.88;;;;;;;;;;5088286;28;20505;-49
2023/03/01 11:32:14;;;;;;;15.38;10.52;;;;;;;;;;5086627;28;20028;-45
2023/03/01 11:34:49;;;;;;;13.73;10.00;;;;;;;;;;5088209;28;20092;-48
2023/03/01 11:37:30;;;;;;;14.63;9.80;;;;;;;;;;5087789;28;20031;-46
2023/03/01 11:40:00;;;;;;;17.35;10.05;;;;;;;;;;5087566;28;20028;-46
2023/03/01 11:42:33;;;;;;;13.27;9.30;;;;;;;;;;5087328;28;20046;-44
2023/03/01 11:45:00;;;;;;;17.30;10.40;;;;;;;;;;5087434;28;20020;-45
2023/03/01 11:47:32;;;;;;;13.63;9.07;;;;;;;;;;5087662;28;20043;-46
2023/03/01 11:50:20;;;;;;;14.35;9.93;;;;;;;;;;5087536;28;20066;-46
2023/03/01 11:52:54;;;;;;;14.15;9.73;;;;;;;;;;5087306;28;20445;-49
2023/03/01 11:55:30;;;;;;;13.38;9.60;;;;;;;;;;5087167;28;20055;-46
2023/03/01 11:58:06;;;;;;;12.95;9.63;;;;;;;;;;5087126;28;20542;-47
2023/03/01 12:00:41;;;;;;;14.05;9.18;;;;;;;;;;5086957;28;20059;-46
2023/03/01 12:03:07;;;;;;;14.93;9.70;;;;;;;;;;5086955;28;20720;-46
2023/03/01 12:05:52;;;;;;;13.00;8.93;;;;;;;;;;5087034;28;20059;-49
2023/03/01 12:08:25;;;;;;;13.43;8.85;;;;;;;;;;5096475;28;20454;-48
2023/03/01 12:10:57;;;;;;;14.60;9.07;;;;;;;;;;5104256;28;20035;-45
2023/03/01 12:13:36;;;;;;;14.75;9.75;;;;;;;;;;5106213;28;20111;-46
2023/03/01 12:16:20;;;;;;;12.65;9.63;;;;;;;;;;5105046;28;20080;-50
2023/03/01 12:18:49;;;;;;;12.13;9.02;;;;;;;;;;5104265;28;20058;-48
2023/03/01 12:21:18;;;;;;;15.40;10.25;;;;;;;;;;5104311;28;20032;-49
2023/03/01 12:23:54;;;;;;;14.10;9.95;;;;;;;;;;5107100;28;20016;-45
2023/03/01 12:26:20;;;;;;;13.70;9.52;;;;;;;;;;5102135;28;20027;-48
2023/03/01 12:29:06;;;;;;;14.43;9.63;;;;;;;;;;5101946;28;20027;-46
2023/03/01 12:31:59;;;;;;;16.45;10.15;;;;;;;;;;5102230;28;20036;-48
2023/03/01 12:34:31;;;;;;;17.10;11.75;;;;;;;;;;5078134;28;20040;-48
2023/03/01 12:37:15;;;;;;;18.65;13.05;;;;;;;;;;5105288;27;20388;-46
2023/03/01 12:39:41;;;;;;;;;;;;;;;;;;5106663;28;20028;-47
2023/03/01 12:42:26;;;;;;;18.45;12.38;;;;;;;;;;5087009;28;19953;-47
2023/03/01 12:44:58;;;;;;;17.15;11.45;;;;;;;;;;5107458;28;20032;-49
2023/03/01 12:47:44;;;;;;;16.58;11.50;;;;;;;;;;5102153;28;20106;-48
2023/03/01 12:50:40;;;;;;;14.65;10.55;;;;;;;;;;5108189;28;20036;-46
2023/03/01 12:53:06;;;;;;;16.30;10.98;;;;;;;;;;5101256;28;20038;-45
2023/03/01 12:55:34;;;;;;;15.45;10.63;;;;;;;;;;5107810;28;20078;-49
2023/03/01 12:58:05;;;;;;;14.80;10.80;;;;;;;;;;5108093;28;20030;-47
2023/03/01 13:00:40;;;;;;;13.27;10.38;;;;;;;;;;5107267;28;20693;-44
2023/03/01 13:03:24;;;;;;;15.20;10.35;;;;;;;;;;5105043;28;20027;-45
2023/03/01 13:05:50;;;;;;;15.35;10.45;;;;;;;;;;5107484;28;20028;-45
2023/03/01 13:08:20;;;;;;;14.48;9.77;;;;;;;;;;5107573;28;20019;-45
2023/03/01 13:11:12;;;;;;;14.02;10.00;;;;;;;;;;5107696;28;20062;-46
2023/03/01 13:13:38;;;;;;;11.48;8.32;;;;;;;;;;5105432;28;20112;-45
2023/03/01 13:16:27;;;;;;;13.93;9.77;;;;;;;;;;5126514;27;20589;-48
2023/03/01 13:19:06;;;;;;;15.00;10.55;;;;;;;;;;5107211;27;20051;-45
2023/03/01 13:21:32;;;;;;;16.92;11.25;;;;;;;;;;5122961;27;20158;-45
2023/03/01 13:24:00;;;;;;;15.30;10.45;;;;;;;;;;5127830;27;20593;-45
2023/03/01 13:26:26;;;;;;;15.43;9.38;;;;;;;;;;5128943;27;20023;-48
2023/03/01 13:28:53;;;;;;;14.48;10.02;;;;;;;;;;5127424;27;20038;-45
2023/03/01 13:31:19;;;;;;;14.18;9.77;;;;;;;;;;5124264;27;20119;-44
2023/03/01 13:33:48;;;;;;;13.52;8.65;;;;;;;;;;5128391;27;20042;-46
2023/03/01 13:36:30;;;;;;;15.77;10.65;;;;;;;;;;5126827;27;20023;-47
2023/03/01 13:38:57;;;;;;;15.63;10.75;;;;;;;;;;5128197;27;20031;-48
2023/03/01 13:41:41;;;;;;;15.82;11.20;;;;;;;;;;5128100;27;20037;-46
2023/03/01 13:44:07;;;;;;;;;;;;;;;;;;5125043;27;20102;-49
2023/03/01 13:46:33;;;;;;;13.77;9.95;;;;;;;;;;5127071;27;20075;-49
2023/03/01 13:48:59;;;;;;;13.27;9.32;;;;;;;;;;5126146;27;20618;-48
2023/03/01 13:51:27;;;;;;;14.00;9.75;;;;;;;;;;5127552;27;20394;-45
2023/03/01 13:53:54;;;;;;;14.65;9.43;;;;;;;;;;5128656;27;20027;-46
2023/03/01 13:56:25;;;;;;;13.02;9.55;;;;;;;;;;5125908;27;20027;-45
2023/03/01 13:58:58;;;;;;;14.90;10.50;;;;;;;;;;5129158;27;20027;-46
2023/03/01 14:01:24;;;;;;;13.93;10.15;;;;;;;;;;5123439;28;20035;-47
2023/03/01 14:03:50;;;;;;;12.38;9.02;;;;;;;;;;5124710;28;20446;-46
2023/03/01 14:06:17;;;;;;;13.60;9.55;;;;;;;;;;5128029;28;20062;-45
2023/03/01 14:08:44;;;;;;;12.25;9.05;;;;;;;;;;5126940;28;20023;-46
2023/03/01 14:11:19;;;;;;;12.95;8.82;;;;;;;;;;5126953;28;20122;-46
2023/03/01 14:13:54;;;;;;;13.02;9.15;;;;;;;;;;5134928;27;20072;-45
2023/03/01 14:16:20;;;;;;;16.42;10.80;;;;;;;;;;5137655;27;20031;-46
2023/03/01 14:19:06;;;;;;;14.48;9.52;;;;;;;;;;5127413;27;20634;-46
2023/03/01 14:21:32;;;;;;;14.07;9.13;;;;;;;;;;5127827;28;20063;-46
2023/03/01 14:23:59;;;;;;;12.43;9.13;;;;;;;;;;5127644;28;20374;-47
2023/03/01 14:26:25;;;;;;;11.40;8.02;;;;;;;;;;5124412;27;20031;-46
2023/03/01 14:28:51;;;;;;;11.40;7.95;;;;;;;;;;5127176;28;20028;-45
2023/03/01 14:31:37;;;;;;;14.35;9.02;;;;;;;;;;5126866;28;20027;-46
2023/03/01 14:34:04;;;;;;;12.07;8.65;;;;;;;;;;5123380;28;20395;-44
2023/03/01 14:36:31;;;;;;;13.45;8.85;;;;;;;;;;5121907;28;20035;-46
2023/03/01 14:39:04;;;;;;;12.73;8.75;;;;;;;;;;5113254;28;20023;-47
2023/03/01 14:41:32;;;;;;;11.20;7.65;;;;;;;;;;5126107;28;20067;-45
2023/03/01 14:44:01;;;;;;;15.07;9.80;;;;;;;;;;5123682;27;20024;-45
2023/03/01 14:46:30;;;;;;;14.57;9.63;;;;;;;;;;5121914;28;20023;-47
2023/03/01 14:48:58;;;;;;;12.57;9.13;;;;;;;;;;5128165;28;20019;-45
2023/03/01 14:51:24;;;;;;;13.90;10.20;;;;;;;;;;5128317;28;20067;-46
2023/03/01 14:53:51;;;;;;;13.95;9.45;;;;;;;;;;5127097;27;20023;-47
2023/03/01 14:56:18;;;;;;;13.98;9.50;;;;;;;;;;5127839;27;20379;-47
2023/03/01 14:58:47;;;;;;;16.58;10.80;;;;;;;;;;5127539;28;20046;-44
2023/03/01 15:01:15;;;;;;;12.98;9.05;;;;;;;;;;5126990;28;20038;-46
2023/03/01 15:03:43;;;;;;;13.52;9.18;;;;;;;;;;5124904;27;20031;-46
2023/03/01 15:06:10;;;;;;;13.35;9.25;;;;;;;;;;5123950;27;20037;-46
2023/03/01 15:08:37;;;;;;;12.95;8.88;;;;;;;;;;5130677;27;20047;-45
2023/03/01 15:11:09;;;;;;;11.88;8.18;;;;;;;;;;5129871;27;20387;-46
2023/03/01 15:13:35;;;;;;;11.77;8.40;;;;;;;;;;5117836;27;20042;-46
2023/03/01 15:16:07;;;;;;;12.15;8.73;;;;;;;;;;5111287;27;20100;-45
2023/03/01 15:18:34;;;;;;;11.43;7.82;;;;;;;;;;5109666;28;20024;-46
2023/03/01 15:21:09;;;;;;;11.68;8.27;;;;;;;;;;5109771;28;20028;-47
2023/03/01 15:23:35;;;;;;;;;;;;;;;;;;5109783;28;20084;-45
2023/03/01 15:26:01;;;;;;;12.18;8.07;;;;;;;;;;5110507;28;19912;-46
2023/03/01 15:28:28;;;;;;;13.60;9.80;;;;;;;;;;5109291;28;20478;-46
2023/03/01 15:30:57;;;;;;;13.10;9.20;;;;;;;;;;5110712;28;20027;-48
2023/03/01 15:33:26;;;;;;;14.15;8.95;;;;;;;;;;5104917;28;20032;-46
2023/03/01 15:35:53;;;;;;;12.38;8.55;;;;;;;;;;5110420;28;20027;-44
2023/03/01 15:38:25;;;;;;;12.00;8.15;;;;;;;;;;5106769;28;20088;-46
2023/03/01 15:40:51;;;;;;;10.10;7.45;;;;;;;;;;5110341;28;20027;-45
2023/03/01 15:43:37;;;;;;;11.32;7.50;;;;;;;;;;5108006;28;20081;-46
2023/03/01 15:46:03;;;;;;;11.38;7.75;;;;;;;;;;5109835;28;20028;-45
2023/03/01 15:48:30;;;;;;;11.68;7.70;;;;;;;;;;5108004;28;20695;-49
2023/03/01 15:50:57;;;;;;;11.10;7.72;;;;;;;;;;5108578;28;20028;-48
2023/03/01 15:53:25;;;;;;;11.05;7.70;;;;;;;;;;5107448;28;20024;-46
2023/03/01 15:55:51;;;;;;;12.23;8.32;;;;;;;;;;5109571;28;20023;-48
2023/03/01 15:58:18;;;;;;;12.15;8.27;;;;;;;;;;5109900;28;20108;-46
2023/03/01 16:00:45;;;;;;;11.30;7.90;;;;;;;;;;5109146;28;20034;-48
2023/03/01 16:03:11;;;;;;;11.75;7.60;;;;;;;;;;5104303;28;20020;-47
2023/03/01 16:05:38;;;;;;;8.63;6.75;;;;;;;;;;5107330;28;20027;-47
2023/03/01 16:08:05;;;;;;;9.85;6.78;;;;;;;;;;5103711;28;20026;-47
2023/03/01 16:10:32;;;;;;;10.55;7.50;;;;;;;;;;5115414;27;20118;-48
2023/03/01 16:12:58;;;;;;;11.25;7.72;;;;;;;;;;5102432;28;20547;-47
2023/03/01 16:15:25;;;;;;;10.77;7.32;;;;;;;;;;5112733;27;20054;-46
2023/03/01 16:17:52;;;;;;;10.85;7.38;;;;;;;;;;5108278;27;20019;-46
2023/03/01 16:20:18;;;;;;;11.02;7.75;;;;;;;;;;5109328;27;20055;-46
2023/03/01 16:22:44;;;;;;;9.93;7.30;;;;;;;;;;5107939;27;20038;-46
2023/03/01 16:25:12;;;;;;;9.55;6.63;;;;;;;;;;5089241;28;20024;-47
2023/03/01 16:27:38;;;;;;;10.23;7.53;;;;;;;;;;5097395;27;20550;-49
2023/03/01 16:30:06;;;;;;;9.40;7.05;;;;;;;;;;5102858;27;20690;-49
2023/03/01 16:32:32;;;;;;;10.90;7.53;;;;;;;;;;5110821;27;20043;-45
2023/03/01 16:34:58;;;;;;;10.35;7.78;;;;;;;;;;5101457;27;20059;-46
2023/03/01 16:37:24;;;;;;;9.93;7.55;;;;;;;;;;5104471;28;20538;-47
2023/03/01 16:39:50;;;;;;;10.43;7.47;;;;;;;;;;5108213;28;20032;-45
2023/03/01 16:42:19;;;;;;;10.50;7.57;;;;;;;;;;5108736;28;20467;-49
2023/03/01 16:44:45;;;;;;;11.27;7.75;;;;;;;;;;5106128;27;20061;-47
2023/03/01 16:47:12;;;;;;;12.02;7.75;;;;;;;;;;5115741;27;20033;-48
2023/03/01 16:49:38;;;;;;;10.43;7.20;;;;;;;;;;5129162;27;20019;-47
2023/03/01 16:52:04;;;;;;;12.27;7.85;;;;;;;;;;5117661;27;20100;-46
2023/03/01 16:54:30;;;;;;;11.68;7.70;;;;;;;;;;5105735;28;20028;-46
2023/03/01 16:56:56;;;;;;;15.45;8.75;;;;;;;;;;5106526;27;20028;-46
2023/03/01 16:59:22;;;;;;;14.73;9.07;;;;;;;;;;5124241;27;20023;-49
2023/03/01 17:01:48;;;;;;;12.27;8.00;;;;;;;;;;5112560;27;20040;-49
2023/03/01 17:04:14;;;;;;;12.35;8.20;;;;;;;;;;5106705;27;20380;-50
2023/03/01 17:06:40;;;;;;;11.52;8.32;;;;;;;;;;5098663;28;20065;-46
2023/03/01 17:09:06;;;;;;;11.43;8.13;;;;;;;;;;5103703;27;20019;-47
2023/03/01 17:11:32;;;;;;;12.63;8.57;;;;;;;;;;5110538;27;20023;-46
2023/03/01 17:13:58;;;;;;;11.38;8.13;;;;;;;;;;5108767;27;20453;-47
2023/03/01 17:16:24;;;;;;;12.35;8.25;;;;;;;;;;5148850;27;20027;-47
2023/03/01 17:18:51;;;;;;;11.10;7.95;;;;;;;;;;5139723;27;20035;-46
2023/03/01 17:21:17;;;;;;;11.82;8.40;;;;;;;;;;5127085;27;20027;-48
2023/03/01 17:23:45;;;;;;;12.60;8.55;;;;;;;;;;5127842;27;20102;-47
2023/03/01 17:26:12;;;;;;;12.77;8.20;;;;;;;;;;5127853;27;20567;-45
2023/03/01 17:28:38;;;;;;;10.45;7.88;;;;;;;;;;5128070;27;20200;-48
2023/03/01 17:31:06;;;;;;;11.73;8.07;;;;;;;;;;5126546;27;20392;-49
2023/03/01 17:33:33;;;;;;;11.40;8.15;;;;;;;;;;5124545;27;20038;-48
2023/03/01 17:35:59;;;;;;;10.02;7.35;;;;;;;;;;5119366;27;20518;-47
2023/03/01 17:38:25;;;;;;;13.10;8.63;;;;;;;;;;5107527;28;20028;-46
2023/03/01 17:40:52;;;;;;;13.90;8.50;;;;;;;;;;5118818;27;20026;-47
2023/03/01 17:43:19;;;;;;;14.00;8.32;;;;;;;;;;5126109;27;20027;-46
2023/03/01 17:45:50;;;;;;;14.18;9.02;;;;;;;;;;5127523;27;20023;-46
2023/03/01 17:48:17;;;;;;;13.13;8.80;;;;;;;;;;5142276;27;20101;-50
2023/03/01 17:50:43;;;;;;;11.80;8.07;;;;;;;;;;5126759;27;20066;-49
2023/03/01 17:53:09;;;;;;;12.30;8.32;;;;;;;;;;5123929;27;20023;-47
2023/03/01 17:55:37;;;;;;;12.02;7.85;;;;;;;;;;5124253;27;20046;-50
2023/03/01 17:58:03;;;;;;;13.05;8.65;;;;;;;;;;5117207;27;20430;-49
2023/03/01 18:00:30;;;;;;;14.43;9.30;;;;;;;;;;5129698;27;20034;-47
2023/03/01 18:02:56;;;;;;;14.60;9.13;;;;;;;;;;5136292;27;20027;-49
2023/03/01 18:05:22;;;;;;;15.15;9.02;;;;;;;;;;5140667;27;20033;-47
2023/03/01 18:07:50;;;;;;;14.88;8.63;;;;;;;;;;5125678;28;20026;-49
2023/03/01 18:10:16;;;;;;;14.88;9.20;;;;;;;;;;5122252;28;20053;-51
2023/03/01 18:12:42;;;;;;;12.80;8.57;;;;;;;;;;5124797;28;20046;-49
2023/03/01 18:15:09;;;;;;;12.18;8.73;;;;;;;;;;5135992;27;20242;-48
2023/03/01 18:17:36;;;;;;;14.55;9.68;;;;;;;;;;5144336;27;20409;-46
2023/03/01 18:20:02;;;;;;;14.23;9.75;;;;;;;;;;5123582;27;20125;-47
2023/03/01 18:22:29;;;;;;;14.77;10.05;;;;;;;;;;5118851;28;20023;-50
2023/03/01 18:24:55;;;;;;;14.57;9.55;;;;;;;;;;5112043;28;20114;-46
2023/03/01 18:27:21;;;;;;;15.55;9.77;;;;;;;;;;5116858;28;20110;-49
2023/03/01 18:29:48;;;;;;;16.38;10.00;;;;;;;;;;5113542;28;20035;-46
2023/03/01 18:32:15;;;;;;;15.23;9.68;;;;;;;;;;5108889;27;20443;-47
2023/03/01 18:34:41;;;;;;;15.25;9.82;;;;;;;;;;5117646;27;20459;-48
2023/03/01 18:37:08;;;;;;;13.75;9.45;;;;;;;;;;5121256;27;20478;-46
2023/03/01 18:39:34;;;;;;;14.10;9.43;;;;;;;;;;5108716;28;20116;-48
2023/03/01 18:42:00;;;;;;;12.68;8.73;;;;;;;;;;5107360;28;20447;-48
2023/03/01 18:44:26;;;;;;;13.27;9.00;;;;;;;;;;5117688;27;20702;-49
2023/03/01 18:46:55;;;;;;;12.93;8.65;;;;;;;;;;5118536;27;20506;-47
2023/03/01 18:49:22;;;;;;;12.93;8.75;;;;;;;;;;5127434;27;20118;-49
2023/03/01 18:51:49;;;;;;;13.02;9.40;;;;;;;;;;5095361;27;20036;-50
2023/03/01 18:54:15;;;;;;;13.60;8.93;;;;;;;;;;5108658;27;20115;-47
2023/03/01 18:56:41;;;;;;;15.50;10.10;;;;;;;;;;5118777;27;20522;-47
2023/03/01 18:59:08;;;;;;;15.75;10.25;;;;;;;;;;5115938;27;20107;-47
2023/03/01 19:01:35;;;;;;;15.95;11.15;;;;;;;;;;5121080;27;20038;-51
2023/03/01 19:04:01;;;;;;;15.60;9.90;;;;;;;;;;5115745;27;20052;-51
2023/03/01 19:06:28;;;;;;;16.25;10.65;;;;;;;;;;5116226;27;20023;-49
2023/03/01 19:08:54;;;;;;;15.90;10.50;;;;;;;;;;5116116;27;20687;-46
2023/03/01 19:11:20;;;;;;;14.32;9.85;;;;;;;;;;5111491;27;20023;-48
2023/03/01 19:13:50;;;;;;;15.23;10.05;;;;;;;;;;5122385;27;20039;-47
2023/03/01 19:16:18;;;;;;;18.23;11.73;;;;;;;;;;5104194;28;20037;-48
2023/03/01 19:18:49;;;;;;;19.63;13.32;;;;;;;;;;5106545;28;20092;-49
2023/03/01 19:21:15;;;;;;;18.90;13.35;;;;;;;;;;5106298;28;20102;-46
2023/03/01 19:23:41;;;;;;;18.85;12.13;;;;;;;;;;5106097;28;20028;-48
2023/03/01 19:26:10;;;;;;;15.18;11.63;;;;;;;;;;5106214;28;20015;-50
2023/03/01 19:28:37;;;;;;;14.82;10.30;;;;;;;;;;5106130;28;20051;-49
2023/03/01 19:31:04;;;;;;;13.63;9.43;;;;;;;;;;5106229;28;20031;-51
2023/03/01 19:33:33;;;;;;;14.63;9.80;;;;;;;;;;5107982;27;20490;-47
2023/03/01 19:35:59;;;;;;;14.02;9.35;;;;;;;;;;5108205;28;20513;-49
2023/03/01 19:38:26;;;;;;;14.23;9.98;;;;;;;;;;5107736;28;20110;-50
2023/03/01 19:40:52;;;;;;;12.70;8.93;;;;;;;;;;5108416;28;20613;-46
2023/03/01 19:43:18;;;;;;;13.23;8.88;;;;;;;;;;5108287;27;20047;-49
2023/03/01 19:45:45;;;;;;;13.55;9.50;;;;;;;;;;5110275;27;20042;-47